Time;durP1;ratioP1;P1;durP2;ratioP2;P2;SDS_P1;SDS_P2;PMS_P1;PMS_P2;Temp;Humidity;BMP_temperature;BMP_pressure;BME280_temperature;BME280_humidity;BME280_pressure;Samples;Min_cycle;Max_cycle;Signal;HPM_P1;HPM_P2
2023/01/10 00:01:46;;;;;;;7.22;1.48;;;;;;;-140.72;100.00;53174.19;5122645;27;20027;-73
2023/01/10 00:04:11;;;;;;;2.33;0.63;;;;;;;-140.72;100.00;53186.34;5121801;27;20030;-72
2023/01/10 00:06:37;;;;;;;2.90;1.10;;;;;;;-140.72;100.00;53200.56;5123563;27;20016;-73
2023/01/10 00:09:02;;;;;;;5.57;1.40;;;;;;;-140.72;100.00;53180.25;5122149;27;20035;-73
2023/01/10 00:14:12;;;;;;;7.35;1.65;;;;;;;-140.72;100.00;53149.81;5126777;27;20050;-73
2023/01/10 00:16:38;;;;;;;6.53;1.90;;;;;;;-140.72;100.00;53149.81;5126863;27;20079;-73
2023/01/10 00:19:04;;;;;;;1.13;0.73;;;;;;;-140.72;100.00;53157.94;5123658;27;20454;-74
2023/01/10 00:21:30;;;;;;;7.43;1.30;;;;;;;-140.72;100.00;53157.94;5124377;27;20037;-72
2023/01/10 00:23:59;;;;;;;14.05;1.90;;;;;;;-140.72;100.00;53178.22;5127681;27;20027;-72
2023/01/10 00:26:24;;;;;;;3.28;0.80;;;;;;;-140.72;100.00;53174.19;5122067;27;20412;-72
2023/01/10 00:28:51;;;;;;;3.03;1.10;;;;;;;-140.72;100.00;53182.28;5121049;27;20020;-72
2023/01/10 00:31:16;;;;;;;8.52;1.55;;;;;;;-140.72;100.00;53127.50;5119534;27;20069;-72
2023/01/10 00:33:42;;;;;;;10.02;2.08;;;;;;;-140.72;100.00;53206.66;5109395;27;20436;-72
2023/01/10 00:36:09;;;;;;;3.15;1.25;;;;;;;-140.72;100.00;53184.31;5102216;28;20028;-72
2023/01/10 00:38:35;;;;;;;1.73;0.55;;;;;;;-140.72;100.00;53151.84;5104567;28;20094;-72
2023/01/10 00:41:01;;;;;;;4.32;1.33;;;;;;;-140.72;100.00;53170.13;5105222;28;20410;-72
2023/01/10 00:46:11;;;;;;;6.70;1.70;;;;;;;-140.72;100.00;53162.00;5104987;28;20124;-72
2023/01/10 00:48:37;;;;;;;4.22;0.77;;;;;;;-140.72;100.00;53164.03;5106686;28;20099;-73
2023/01/10 00:51:04;;;;;;;3.33;1.17;;;;;;;-140.72;100.00;53143.72;5102721;28;20026;-72
2023/01/10 00:53:29;;;;;;;7.10;1.38;;;;;;;-140.72;100.00;53166.06;5099531;28;20024;-74
2023/01/10 00:55:55;;;;;;;9.57;1.58;;;;;;;-140.72;100.00;53157.94;5099551;28;20067;-72
2023/01/10 00:58:21;;;;;;;6.63;1.70;;;;;;;-140.72;100.00;53159.97;5098305;28;20022;-74
2023/01/10 01:00:50;;;;;;;10.85;1.73;;;;;;;-140.72;100.00;53155.91;5104338;28;20422;-71
2023/01/10 01:03:18;;;;;;;6.07;1.58;;;;;;;-140.72;100.00;53174.19;5102302;28;20049;-73
2023/01/10 01:05:45;;;;;;;10.15;2.08;;;;;;;-140.72;100.00;53168.09;5102099;28;20434;-72
2023/01/10 01:08:12;;;;;;;6.80;1.00;;;;;;;-140.72;100.00;53149.81;5098947;28;20020;-71
2023/01/10 01:10:38;;;;;;;5.30;1.00;;;;;;;-140.72;100.00;53188.38;5102238;28;20047;-73
2023/01/10 01:13:09;;;;;;;4.57;1.45;;;;;;;-140.72;100.00;53166.06;5107758;28;20063;-72
2023/01/10 01:15:35;;;;;;;10.82;1.13;;;;;;;-140.72;100.00;53153.88;5102299;28;20103;-71
2023/01/10 01:18:01;;;;;;;5.45;1.38;;;;;;;-140.72;100.00;53162.00;5097776;28;20347;-72
2023/01/10 01:20:26;;;;;;;8.60;1.67;;;;;;;-140.72;100.00;53162.00;5097503;28;20023;-73
2023/01/10 01:22:52;;;;;;;1.85;0.63;;;;;;;-140.72;100.00;53141.69;5109036;28;20039;-72
2023/01/10 01:25:17;;;;;;;6.15;1.58;;;;;;;-140.72;100.00;53141.69;5096997;28;20020;-71
2023/01/10 01:27:43;;;;;;;15.65;2.90;;;;;;;-140.72;100.00;53159.97;5099993;28;20035;-73
2023/01/10 01:30:12;;;;;;;8.68;1.95;;;;;;;-140.72;100.00;53190.41;5105369;28;20077;-74
2023/01/10 01:32:38;;;;;;;;;;;;;;;-140.72;100.00;53153.88;5102708;28;20040;-73
2023/01/10 01:35:05;;;;;;;8.30;1.38;;;;;;;-140.72;100.00;53143.72;5103214;28;20287;-74
2023/01/10 01:37:30;;;;;;;8.65;1.77;;;;;;;-140.72;100.00;53162.00;5098633;28;20528;-72
2023/01/10 01:39:56;;;;;;;7.40;1.90;;;;;;;-140.72;100.00;53166.06;5100535;28;20031;-73
2023/01/10 01:42:25;;;;;;;7.35;1.52;;;;;;;-140.72;100.00;53141.69;5105242;28;20385;-74
2023/01/10 01:45:06;;;;;;;8.40;1.40;;;;;;;-140.72;100.00;53139.69;5099683;28;20016;-73
2023/01/10 01:47:34;;;;;;;3.45;1.98;;;;;;;-140.72;100.00;53135.63;5100466;28;20035;-74
2023/01/10 01:50:00;;;;;;;17.17;2.05;;;;;;;-140.72;100.00;53135.63;5104951;28;20387;-71
2023/01/10 01:52:33;;;;;;;10.13;2.05;;;;;;;-140.72;100.00;53182.28;5093804;28;20016;-73
2023/01/10 01:55:00;;;;;;;5.90;0.85;;;;;;;-140.72;100.00;53145.75;5109010;28;20019;-73
2023/01/10 01:57:29;;;;;;;6.47;1.42;;;;;;;-140.72;100.00;53155.91;5091439;28;20028;-73
2023/01/10 01:59:55;;;;;;;10.27;1.83;;;;;;;-140.72;100.00;53164.03;5098855;28;20020;-73
2023/01/10 02:02:37;;;;;;;5.13;0.77;;;;;;;-140.72;100.00;53174.19;5101803;28;20421;-72
2023/01/10 02:05:07;;;;;;;7.55;1.75;;;;;;;-140.72;100.00;53135.63;5102775;28;20047;-72
2023/01/10 02:07:39;;;;;;;4.93;1.15;;;;;;;-140.72;100.00;53157.94;5109729;28;20022;-71
2023/01/10 02:10:27;;;;;;;4.43;1.10;;;;;;;-140.72;100.00;53162.00;5098811;28;20376;-73
2023/01/10 02:12:54;;;;;;;13.93;2.10;;;;;;;-140.72;100.00;53137.66;5098288;28;20014;-74
2023/01/10 02:15:20;;;;;;;4.55;1.10;;;;;;;-140.72;100.00;53157.94;5094050;28;20011;-72
2023/01/10 02:17:48;;;;;;;2.35;1.30;;;;;;;-140.72;100.00;53135.63;5100579;28;20407;-73
2023/01/10 02:20:16;;;;;;;3.85;1.02;;;;;;;-140.72;100.00;53153.88;5102126;28;20028;-73
2023/01/10 02:23:03;;;;;;;6.72;1.10;;;;;;;-140.72;100.00;53164.03;5094800;28;20019;-73
2023/01/10 02:26:07;;;;;;;5.20;0.95;;;;;;;-140.72;100.00;53141.69;5107612;28;20089;-74
2023/01/10 02:28:57;;;;;;;8.20;2.45;;;;;;;-140.72;100.00;53113.28;5061257;28;20028;-74
2023/01/10 02:31:34;;;;;;;6.30;0.95;;;;;;;-140.72;100.00;53170.13;5105182;28;20117;-71
2023/01/10 02:34:17;;;;;;;7.53;1.60;;;;;;;-140.72;100.00;53176.22;5115231;28;20043;-71
2023/01/10 02:36:48;;;;;;;4.20;0.57;;;;;;;-140.72;100.00;53186.34;5118777;28;20371;-73
2023/01/10 02:39:38;;;;;;;6.53;1.83;;;;;;;-140.72;100.00;53178.22;5123370;27;20019;-72
2023/01/10 02:42:08;;;;;;;3.10;1.35;;;;;;;-140.72;100.00;53176.22;5114995;27;20110;-72
2023/01/10 02:44:59;;;;;;;8.65;1.05;;;;;;;-140.72;100.00;53174.19;5125785;27;20027;-73
2023/01/10 02:47:24;;;;;;;9.32;1.58;;;;;;;-140.72;100.00;53186.34;5124154;27;20107;-72
2023/01/10 02:49:53;;;;;;;5.20;1.63;;;;;;;-140.72;100.00;53135.63;5126210;27;20370;-72
2023/01/10 02:52:25;;;;;;;5.78;1.55;;;;;;;-140.72;100.00;53194.47;5131275;27;20119;-73
2023/01/10 02:54:58;;;;;;;4.50;1.08;;;;;;;-140.72;100.00;53149.81;5115511;27;20020;-73
2023/01/10 02:57:38;;;;;;;14.70;2.45;;;;;;;-140.72;100.00;53162.00;5114756;27;20107;-73
2023/01/10 03:00:35;;;;;;;5.32;1.17;;;;;;;-140.72;100.00;53180.25;5124873;27;20072;-73
2023/01/10 03:03:38;;;;;;;7.03;1.20;;;;;;;-140.72;100.00;53166.06;5122411;27;20015;-73
2023/01/10 03:06:29;;;;;;;5.28;1.13;;;;;;;-140.72;100.00;53141.69;5072154;27;20058;-73
2023/01/10 03:09:17;;;;;;;8.77;1.27;;;;;;;-140.72;100.00;53170.13;5131495;27;20019;-72
2023/01/10 03:11:45;;;;;;;14.70;2.55;;;;;;;-140.72;100.00;53168.09;5133516;27;20079;-73
2023/01/10 03:14:25;;;;;;;6.25;1.52;;;;;;;-140.72;100.00;53170.13;5116712;27;20027;-74
2023/01/10 03:16:58;;;;;;;4.45;1.48;;;;;;;-140.72;100.00;53149.81;5124440;27;20506;-74
2023/01/10 03:19:30;;;;;;;7.82;1.58;;;;;;;-140.72;100.00;53166.06;5114544;27;20020;-74
2023/01/10 03:21:59;;;;;;;7.53;1.63;;;;;;;-140.72;100.00;53192.44;5127958;27;20098;-73
2023/01/10 03:24:33;;;;;;;10.65;1.70;;;;;;;-140.72;100.00;53145.75;5113417;27;20023;-72
2023/01/10 03:27:26;;;;;;;3.75;0.88;;;;;;;-140.72;100.00;53182.28;5117864;27;20038;-72
2023/01/10 03:30:04;;;;;;;7.65;1.50;;;;;;;-140.72;100.00;53170.13;5120131;27;20099;-73
2023/01/10 03:32:30;;;;;;;5.55;1.67;;;;;;;-140.72;100.00;53149.81;5121304;27;20042;-73
2023/01/10 03:35:01;;;;;;;6.38;2.28;;;;;;;-140.72;100.00;53145.75;5117477;27;20571;-71
2023/01/10 03:37:49;;;;;;;9.63;2.42;;;;;;;-140.72;100.00;53180.25;5114957;27;20024;-72
2023/01/10 03:40:43;;;;;;;11.38;1.83;;;;;;;-140.72;100.00;53214.78;5121546;27;20015;-72
2023/01/10 03:46:43;;;;;;;3.13;0.73;;;;;;;-140.72;100.00;53192.44;5128800;27;20034;-75
2023/01/10 03:49:10;;;;;;;6.10;1.45;;;;;;;-140.72;100.00;53178.22;5118138;27;20110;-72
2023/01/10 03:51:37;;;;;;;6.50;1.83;;;;;;;-140.72;100.00;53180.25;5123976;27;20031;-71
2023/01/10 03:54:04;;;;;;;8.18;1.27;;;;;;;-140.72;100.00;53216.78;5127291;27;20034;-72
2023/01/10 03:56:29;;;;;;;10.90;1.88;;;;;;;-140.72;100.00;53198.53;5118416;27;20022;-73
2023/01/10 03:58:55;;;;;;;4.60;1.67;;;;;;;-140.72;100.00;53180.25;5117881;27;20023;-73
2023/01/10 04:01:20;;;;;;;7.15;2.28;;;;;;;-140.72;100.00;53137.66;5121057;27;20035;-73
2023/01/10 04:03:48;;;;;;;12.23;1.80;;;;;;;-140.72;100.00;53176.22;5121735;27;20223;-73
2023/01/10 04:06:16;;;;;;;7.30;1.77;;;;;;;-140.72;100.00;53202.59;5122783;27;20377;-72
2023/01/10 04:08:41;;;;;;;3.95;1.95;;;;;;;-140.72;100.00;53200.56;5133457;27;20020;-72
2023/01/10 04:11:07;;;;;;;7.75;1.75;;;;;;;-140.72;100.00;53174.19;5117590;27;20028;-73
2023/01/10 04:13:32;;;;;;;4.07;1.83;;;;;;;-140.72;100.00;53137.66;5121551;27;20023;-72
2023/01/10 04:15:59;;;;;;;6.80;1.80;;;;;;;-140.72;100.00;53162.00;5129192;27;20012;-72
2023/01/10 04:18:27;;;;;;;5.60;1.45;;;;;;;-140.72;100.00;53182.28;5114614;27;20015;-73
2023/01/10 04:20:53;;;;;;;8.73;1.85;;;;;;;-140.72;100.00;53139.69;5114168;27;20043;-72
2023/01/10 04:23:18;;;;;;;3.67;1.58;;;;;;;-140.72;100.00;53178.22;5116654;27;20473;-73
2023/01/10 04:25:47;;;;;;;7.35;1.65;;;;;;;-140.72;100.00;53153.88;5119093;27;20027;-75
2023/01/10 04:28:12;;;;;;;4.13;1.63;;;;;;;-140.72;100.00;53184.31;5131706;27;20027;-73
2023/01/10 04:30:43;;;;;;;4.97;1.17;;;;;;;-140.72;100.00;53188.38;5125756;27;20091;-72
2023/01/10 04:33:10;;;;;;;6.20;1.65;;;;;;;-140.72;100.00;53170.13;5113684;27;20522;-73
2023/01/10 04:35:36;;;;;;;10.10;2.03;;;;;;;-140.72;100.00;53166.06;5121225;27;20512;-72
2023/01/10 04:38:01;;;;;;;7.78;1.85;;;;;;;-140.72;100.00;53210.72;5130338;27;20023;-72
2023/01/10 04:40:26;;;;;;;4.43;1.25;;;;;;;-140.72;100.00;53182.28;5131097;27;20023;-74
2023/01/10 04:42:52;;;;;;;5.20;1.55;;;;;;;-140.72;100.00;53182.28;5117833;27;20392;-72
2023/01/10 04:45:19;;;;;;;9.48;1.85;;;;;;;-140.72;100.00;53186.34;5112826;28;20024;-73
2023/01/10 04:47:49;;;;;;;4.13;1.45;;;;;;;-140.72;100.00;53204.63;5126394;27;20110;-73
2023/01/10 04:50:15;;;;;;;5.90;1.55;;;;;;;-140.72;100.00;53182.28;5129169;27;20051;-72
2023/01/10 04:52:42;;;;;;;4.90;1.75;;;;;;;-140.72;100.00;53200.56;5130086;27;20517;-75
2023/01/10 04:55:08;;;;;;;9.73;1.40;;;;;;;-140.72;100.00;53228.97;5124497;27;20030;-74
2023/01/10 04:57:33;;;;;;;12.25;2.55;;;;;;;-140.72;100.00;53180.25;5111982;27;20106;-72
2023/01/10 04:59:59;;;;;;;6.05;1.58;;;;;;;-140.72;100.00;53164.03;5115473;27;20059;-73
2023/01/10 05:02:24;;;;;;;6.80;2.17;;;;;;;-140.72;100.00;53182.28;5114064;27;20023;-73
2023/01/10 05:04:50;;;;;;;10.77;2.50;;;;;;;-140.72;100.00;53216.78;5113548;27;20464;-72
2023/01/10 05:07:15;;;;;;;5.20;1.52;;;;;;;-140.72;100.00;53196.50;5119285;27;20066;-73
2023/01/10 05:09:44;;;;;;;6.10;2.22;;;;;;;-140.72;100.00;53214.78;5112340;27;20027;-72
2023/01/10 05:12:09;;;;;;;7.88;1.70;;;;;;;-140.72;100.00;53194.47;5116026;27;20426;-73
2023/01/10 05:14:35;;;;;;;6.35;1.40;;;;;;;-140.72;100.00;53204.63;5123536;27;20036;-72
2023/01/10 05:17:00;;;;;;;8.13;1.55;;;;;;;-140.72;100.00;53237.09;5112100;27;20054;-73
2023/01/10 05:19:25;;;;;;;5.82;1.10;;;;;;;-140.72;100.00;53204.63;5113941;27;20451;-74
2023/01/10 05:21:52;;;;;;;8.70;2.33;;;;;;;-140.72;100.00;53170.13;5113921;27;20030;-73
2023/01/10 05:24:20;;;;;;;9.18;2.10;;;;;;;-140.72;100.00;53231.00;5118350;27;20098;-73
2023/01/10 05:26:45;;;;;;;15.13;2.38;;;;;;;-140.72;100.00;53204.63;5126559;27;20039;-73
2023/01/10 05:29:11;;;;;;;6.78;1.20;;;;;;;-140.72;100.00;53157.94;5111057;28;20122;-72
2023/01/10 05:31:36;;;;;;;13.35;1.85;;;;;;;-140.72;100.00;53243.19;5122654;27;20526;-73
2023/01/10 05:34:11;;;;;;;2.80;0.93;;;;;;;-140.72;100.00;53174.19;5117539;27;20047;-72
2023/01/10 05:36:37;;;;;;;10.43;1.98;;;;;;;-140.72;100.00;53239.13;5122918;27;21322;-73
2023/01/10 05:39:03;;;;;;;5.07;2.15;;;;;;;-140.72;100.00;53198.53;5129123;27;20011;-72
2023/01/10 05:41:28;;;;;;;10.27;2.63;;;;;;;-140.72;100.00;53200.56;5127486;27;20031;-72
2023/01/10 05:43:54;;;;;;;9.55;2.78;;;;;;;-140.72;100.00;53218.81;5110432;27;20035;-71
2023/01/10 05:46:19;;;;;;;16.70;2.30;;;;;;;-140.72;100.00;53194.47;5124714;27;20023;-72
2023/01/10 05:48:44;;;;;;;5.70;1.70;;;;;;;-140.72;100.00;53267.53;5111489;28;20035;-71
2023/01/10 05:51:10;;;;;;;4.63;1.63;;;;;;;-140.72;100.00;53202.59;5120147;27;20015;-72
2023/01/10 05:53:35;;;;;;;14.93;2.50;;;;;;;-140.72;100.00;53196.50;5111369;28;20031;-71
2023/01/10 05:56:02;;;;;;;8.88;2.05;;;;;;;-140.72;100.00;53190.41;5119667;27;20031;-72
2023/01/10 05:58:28;;;;;;;10.20;2.55;;;;;;;-140.72;100.00;53176.22;5127567;27;20482;-71
2023/01/10 06:00:55;;;;;;;10.02;2.78;;;;;;;-140.72;100.00;53174.19;5123081;27;20047;-74
2023/01/10 06:03:21;;;;;;;9.18;1.88;;;;;;;-140.72;100.00;53210.72;5120169;28;20060;-72
2023/01/10 06:05:47;;;;;;;4.80;1.38;;;;;;;-140.72;100.00;53174.19;5124625;28;20026;-72
2023/01/10 06:08:13;;;;;;;6.13;1.80;;;;;;;-140.72;100.00;53194.47;5131885;28;20027;-74
2023/01/10 06:10:38;;;;;;;7.32;1.98;;;;;;;-140.72;100.00;53184.31;5115018;28;20027;-74
2023/01/10 06:13:04;;;;;;;6.07;2.33;;;;;;;-140.72;100.00;53202.59;5118488;28;20140;-72
2023/01/10 06:15:30;;;;;;;6.72;1.65;;;;;;;-140.72;100.00;53190.41;5130653;27;20321;-72
2023/01/10 06:17:55;;;;;;;5.22;0.88;;;;;;;-140.72;100.00;53168.09;5128415;27;20027;-73
2023/01/10 06:20:20;;;;;;;3.55;1.35;;;;;;;-140.72;100.00;53174.19;5123694;27;20446;-74
2023/01/10 06:22:46;;;;;;;6.38;1.48;;;;;;;-140.72;100.00;53149.81;5124269;27;20021;-71
2023/01/10 06:25:13;;;;;;;7.53;2.42;;;;;;;-140.72;100.00;53200.56;5130262;27;20019;-72
2023/01/10 06:27:40;;;;;;;10.63;1.83;;;;;;;-140.72;100.00;53204.63;5126308;27;20016;-75
2023/01/10 06:30:06;;;;;;;6.32;2.13;;;;;;;-140.72;100.00;53164.03;5117476;27;20023;-72
2023/01/10 06:32:32;;;;;;;9.57;1.75;;;;;;;-140.72;100.00;53212.75;5124761;27;20039;-72
2023/01/10 06:34:57;;;;;;;7.75;2.03;;;;;;;-140.72;100.00;53186.34;5127545;27;20451;-74
2023/01/10 06:37:22;;;;;;;4.40;1.73;;;;;;;-140.72;100.00;53178.22;5121989;27;20027;-71
2023/01/10 06:39:50;;;;;;;3.90;1.17;;;;;;;-140.72;100.00;53204.63;5127376;27;20117;-72
2023/01/10 06:42:15;;;;;;;14.50;2.03;;;;;;;-140.72;100.00;53214.78;5123559;27;20528;-73
2023/01/10 06:44:41;;;;;;;7.72;1.20;;;;;;;-140.72;100.00;53218.81;5101343;27;20035;-74
2023/01/10 06:47:06;;;;;;;7.28;2.47;;;;;;;-140.72;100.00;53170.13;5125959;27;20035;-74
2023/01/10 06:49:32;;;;;;;8.73;2.05;;;;;;;-140.72;100.00;53226.94;5103659;27;20402;-73
2023/01/10 06:51:57;;;;;;;6.95;1.58;;;;;;;-140.72;100.00;53222.88;5117668;27;20070;-72
2023/01/10 06:54:22;;;;;;;8.70;1.75;;;;;;;-140.72;100.00;53210.72;5121868;27;20107;-72
2023/01/10 06:56:48;;;;;;;8.55;1.77;;;;;;;-140.72;100.00;53206.66;5122153;27;20432;-72
2023/01/10 06:59:15;;;;;;;3.63;1.67;;;;;;;-140.72;100.00;53202.59;5128579;27;20067;-73
2023/01/10 07:01:43;;;;;;;9.93;1.42;;;;;;;-140.72;100.00;53192.44;5124627;27;20020;-74
2023/01/10 07:04:11;;;;;;;8.82;1.85;;;;;;;-140.72;100.00;53222.88;5123727;27;20019;-74
2023/01/10 07:06:38;;;;;;;6.40;1.77;;;;;;;-140.72;100.00;53182.28;5124968;27;20003;-74
2023/01/10 07:09:05;;;;;;;4.80;2.17;;;;;;;-140.72;100.00;53214.78;5123954;27;20038;-72
2023/01/10 07:11:30;;;;;;;14.15;2.50;;;;;;;-140.72;100.00;53196.50;5124190;27;20470;-75
2023/01/10 07:13:56;;;;;;;8.02;1.70;;;;;;;-140.72;100.00;53239.13;5124205;27;20124;-72
2023/01/10 07:16:21;;;;;;;7.32;1.45;;;;;;;-140.72;100.00;53202.59;5122274;27;20141;-74
2023/01/10 07:18:50;;;;;;;4.25;1.60;;;;;;;-140.72;100.00;53194.47;5124449;27;20054;-73
2023/01/10 07:21:16;;;;;;;6.28;1.85;;;;;;;-140.72;100.00;53226.94;5127065;27;20046;-73
2023/01/10 07:23:42;;;;;;;6.55;1.95;;;;;;;-140.72;100.00;53202.59;5127021;27;20016;-72
2023/01/10 07:26:10;;;;;;;8.45;1.60;;;;;;;-140.72;100.00;53218.81;5126716;27;20427;-73
2023/01/10 07:28:36;;;;;;;8.73;1.65;;;;;;;-140.72;100.00;53237.09;5128195;27;20456;-72
2023/01/10 07:31:03;;;;;;;9.65;1.75;;;;;;;-140.72;100.00;53210.72;5121265;27;20022;-72
2023/01/10 07:33:30;;;;;;;12.15;2.42;;;;;;;-140.72;100.00;53208.69;5125829;27;20214;-73
2023/01/10 07:35:56;;;;;;;6.28;2.42;;;;;;;-140.72;100.00;53194.47;5126150;27;20026;-74
2023/01/10 07:38:21;;;;;;;3.78;1.80;;;;;;;-140.72;100.00;53186.34;5124480;27;20019;-73
2023/01/10 07:40:47;;;;;;;7.80;1.40;;;;;;;-140.72;100.00;53192.44;5124346;27;20034;-73
2023/01/10 07:43:12;;;;;;;19.88;2.17;;;;;;;-140.72;100.00;53210.72;5125466;27;20102;-73
2023/01/10 07:45:38;;;;;;;8.48;1.23;;;;;;;-140.72;100.00;53237.09;5126598;27;20015;-74
2023/01/10 07:48:04;;;;;;;10.63;2.15;;;;;;;-140.72;100.00;53224.91;5125792;27;20023;-72
2023/01/10 07:50:33;;;;;;;13.20;2.15;;;;;;;-140.72;100.00;53269.56;5125389;27;20016;-72
2023/01/10 07:53:00;;;;;;;6.55;1.73;;;;;;;-140.72;100.00;53247.25;5115028;27;20024;-73
2023/01/10 07:55:26;;;;;;;4.65;2.35;;;;;;;-140.72;100.00;53214.78;5125922;27;20045;-74
2023/01/10 07:57:51;;;;;;;6.40;1.30;;;;;;;-140.72;100.00;53271.59;5120095;27;20411;-74
2023/01/10 08:00:18;;;;;;;10.63;1.67;;;;;;;-140.72;100.00;53243.19;5121677;27;20099;-73
2023/01/10 08:02:43;;;;;;;10.13;1.52;;;;;;;-140.72;100.00;53239.13;5114859;27;20081;-73
2023/01/10 08:05:12;;;;;;;10.30;2.35;;;;;;;-140.72;100.00;53226.94;5119367;27;20058;-74
2023/01/10 08:07:37;;;;;;;5.07;1.70;;;;;;;-140.72;100.00;53200.56;5116571;27;20103;-72
2023/01/10 08:10:06;;;;;;;8.45;2.50;;;;;;;-140.72;100.00;53194.47;5133022;27;20054;-74
2023/01/10 08:12:32;;;;;;;11.27;3.03;;;;;;;-140.72;100.00;53231.00;5112081;27;20025;-73
2023/01/10 08:14:58;;;;;;;8.15;1.40;;;;;;;-140.72;100.00;53231.00;5123666;27;20267;-74
2023/01/10 08:17:24;;;;;;;4.40;1.70;;;;;;;-140.72;100.00;53267.53;5114610;27;20023;-76
2023/01/10 08:19:49;;;;;;;14.68;3.88;;;;;;;-140.72;100.00;53218.81;5114293;27;20088;-73
2023/01/10 08:22:15;;;;;;;10.25;1.88;;;;;;;-140.72;100.00;53194.47;5116645;27;20031;-75
2023/01/10 08:24:40;;;;;;;15.07;3.78;;;;;;;-140.72;100.00;53226.94;5111152;27;20047;-74
2023/01/10 08:27:06;;;;;;;10.38;2.33;;;;;;;-140.72;100.00;53216.78;5106910;27;20051;-74
2023/01/10 08:29:31;;;;;;;6.85;2.25;;;;;;;-140.72;100.00;53226.94;5116860;27;20051;-75
2023/01/10 08:31:57;;;;;;;7.38;2.10;;;;;;;-140.72;100.00;53235.06;5114943;27;20046;-74
2023/01/10 08:34:22;;;;;;;13.05;3.08;;;;;;;-140.72;100.00;53214.78;5114680;27;20022;-74
2023/01/10 08:36:52;;;;;;;11.20;2.25;;;;;;;-140.72;100.00;53206.66;5112366;27;20050;-75
2023/01/10 08:39:21;;;;;;;7.03;1.73;;;;;;;-140.72;100.00;53226.94;5118577;27;20024;-74
2023/01/10 08:41:46;;;;;;;3.40;1.65;;;;;;;-140.72;100.00;53222.88;5121259;27;20026;-73
2023/01/10 08:44:14;;;;;;;6.50;1.58;;;;;;;-140.72;100.00;53214.78;5118014;27;20360;-72
2023/01/10 08:46:41;;;;;;;12.52;1.92;;;;;;;-140.72;100.00;53233.03;5114271;27;20455;-73
2023/01/10 08:49:07;;;;;;;9.80;2.47;;;;;;;-140.72;100.00;53226.94;5115380;27;20225;-72
2023/01/10 08:51:32;;;;;;;26.95;3.33;;;;;;;-140.72;100.00;53212.75;5126079;27;20027;-74
2023/01/10 08:53:57;;;;;;;7.38;1.85;;;;;;;-140.72;100.00;53224.91;5112583;27;20020;-73
2023/01/10 08:56:23;;;;;;;6.53;1.98;;;;;;;-140.72;100.00;53241.16;5110939;27;20051;-72
2023/01/10 08:58:48;;;;;;;11.20;2.72;;;;;;;-140.72;100.00;53210.72;5131370;27;20023;-73
2023/01/10 09:01:14;;;;;;;5.00;1.55;;;;;;;-140.72;100.00;53220.84;5116731;27;20436;-74
2023/01/10 09:03:43;;;;;;;11.00;2.97;;;;;;;-140.72;100.00;53239.13;5103315;27;20111;-75
2023/01/10 09:06:09;;;;;;;12.98;2.47;;;;;;;-140.72;100.00;53200.56;5113488;27;20782;-75
2023/01/10 09:08:35;;;;;;;10.40;2.83;;;;;;;-140.72;100.00;53194.47;5113926;27;20026;-74
2023/01/10 09:11:01;;;;;;;16.17;3.20;;;;;;;-140.72;100.00;53255.34;5127443;27;20101;-74
2023/01/10 09:13:28;;;;;;;9.05;2.47;;;;;;;-140.72;100.00;53247.25;5116241;27;20038;-75
2023/01/10 09:15:54;;;;;;;5.43;1.75;;;;;;;-140.72;100.00;53224.91;5116150;27;20515;-76
2023/01/10 09:18:19;;;;;;;4.97;1.67;;;;;;;-140.72;100.00;53210.72;5117801;27;20142;-75
2023/01/10 09:20:45;;;;;;;6.70;2.28;;;;;;;-140.72;100.00;53210.72;5112405;27;20027;-74
2023/01/10 09:23:18;;;;;;;16.83;3.08;;;;;;;-140.72;100.00;53251.31;5110248;27;20030;-74
2023/01/10 09:25:49;;;;;;;8.20;2.25;;;;;;;-140.72;100.00;53208.69;5127863;27;20034;-75
2023/01/10 09:28:15;;;;;;;13.80;2.55;;;;;;;-140.72;100.00;53218.81;5123123;27;20077;-75
2023/01/10 09:30:41;;;;;;;13.40;2.65;;;;;;;-140.72;100.00;53178.22;5115781;27;20019;-74
2023/01/10 09:33:07;;;;;;;13.00;2.65;;;;;;;-140.72;100.00;53235.06;5103935;27;20150;-73
2023/01/10 09:35:35;;;;;;;6.57;2.42;;;;;;;-140.72;100.00;53204.63;5093756;28;20028;-74
2023/01/10 09:38:01;;;;;;;15.63;2.67;;;;;;;-140.72;100.00;53247.25;5098126;28;20027;-77
2023/01/10 09:40:47;;;;;;;11.95;2.75;;;;;;;-140.72;100.00;53224.91;5093331;28;20035;-76
2023/01/10 09:43:29;;;;;;;11.63;3.13;;;;;;;-140.72;100.00;53226.94;5093884;28;20031;-74
2023/01/10 09:46:09;;;;;;;6.10;2.33;;;;;;;-140.72;100.00;53190.41;5094987;28;20012;-74
2023/01/10 09:49:01;;;;;;;7.70;2.03;;;;;;;-140.72;100.00;53226.94;5100297;28;20024;-75
2023/01/10 09:51:47;;;;;;;5.18;2.00;;;;;;;-140.72;100.00;53231.00;5099501;28;20101;-75
2023/01/10 09:54:19;;;;;;;6.10;1.42;;;;;;;-140.72;100.00;53212.75;5095410;28;20020;-75
2023/01/10 09:56:46;;;;;;;7.95;1.92;;;;;;;-140.72;100.00;53178.22;5096802;28;20543;-74
2023/01/10 09:59:18;;;;;;;6.50;2.28;;;;;;;-140.72;100.00;53194.47;5096947;28;20227;-76
2023/01/10 10:01:52;;;;;;;3.85;1.08;;;;;;;-140.72;100.00;53247.25;5091171;28;20472;-76
2023/01/10 10:04:26;;;;;;;8.25;1.60;;;;;;;-140.72;100.00;53247.25;5103482;28;20023;-75
2023/01/10 10:06:52;;;;;;;7.47;2.08;;;;;;;-140.72;100.00;53212.75;5096140;28;20043;-74
2023/01/10 10:09:28;;;;;;;8.05;2.25;;;;;;;-140.72;100.00;53188.38;5091284;28;20136;-74
2023/01/10 10:12:22;;;;;;;11.57;2.63;;;;;;;-140.72;100.00;53228.97;5090401;28;20028;-74
2023/01/10 10:15:15;;;;;;;7.43;2.22;;;;;;;-140.72;100.00;53186.34;5094375;28;20023;-74
2023/01/10 10:17:59;;;;;;;15.65;2.55;;;;;;;-140.72;100.00;53208.69;5095026;28;20499;-76
2023/01/10 10:20:40;;;;;;;5.03;1.80;;;;;;;-140.72;100.00;53253.31;5092666;28;20122;-74
2023/01/10 10:23:27;;;;;;;6.15;2.15;;;;;;;-140.72;100.00;53218.81;5096628;28;20460;-72
2023/01/10 10:26:23;;;;;;;5.38;1.92;;;;;;;-140.72;100.00;53206.66;5105590;28;20024;-74
2023/01/10 10:28:57;;;;;;;11.38;2.55;;;;;;;-140.72;100.00;53170.13;5093717;28;20073;-73
2023/01/10 10:31:55;;;;;;;11.98;2.22;;;;;;;-140.72;100.00;53190.41;5086388;28;20111;-74
2023/01/10 10:34:38;;;;;;;7.55;2.10;;;;;;;-140.72;100.00;53214.78;5109735;28;20210;-74
2023/01/10 10:37:32;;;;;;;10.02;1.90;;;;;;;-140.72;100.00;53196.50;5110305;28;20383;-76
2023/01/10 10:40:04;;;;;;;5.63;2.63;;;;;;;-140.72;100.00;53208.69;5116222;28;20395;-75
2023/01/10 10:42:37;;;;;;;6.47;1.98;;;;;;;-140.72;100.00;53188.38;5119042;28;20019;-74
2023/01/10 10:45:45;;;;;;;10.55;2.42;;;;;;;-140.72;100.00;53194.47;5119368;28;20110;-74
2023/01/10 10:48:46;;;;;;;3.15;1.45;;;;;;;-140.72;100.00;53184.31;5121142;28;20036;-75
2023/01/10 10:51:22;;;;;;;7.68;1.90;;;;;;;-140.72;100.00;53222.88;5087153;28;20089;-74
2023/01/10 10:53:48;;;;;;;8.30;2.45;;;;;;;-140.72;100.00;53198.53;5120639;28;20338;-74
2023/01/10 10:56:16;;;;;;;6.40;1.50;;;;;;;-140.72;100.00;53196.50;5111717;28;20046;-77
2023/01/10 10:58:44;;;;;;;7.38;1.75;;;;;;;-140.72;100.00;53204.63;5115507;28;20504;-75
2023/01/10 11:01:13;;;;;;;7.78;2.17;;;;;;;-140.72;100.00;53202.59;5118598;27;20027;-75
2023/01/10 11:03:46;;;;;;;6.45;1.90;;;;;;;-140.72;100.00;53178.22;5114495;27;20463;-75
2023/01/10 11:06:14;;;;;;;5.50;1.33;;;;;;;-140.72;100.00;53172.16;5118016;27;20027;-72
2023/01/10 11:08:44;;;;;;;9.80;2.38;;;;;;;-140.72;100.00;53166.06;5114039;27;20251;-74
2023/01/10 11:11:24;;;;;;;17.13;3.10;;;;;;;-140.72;100.00;53210.72;5128228;27;20031;-73
2023/01/10 11:13:54;;;;;;;5.20;2.17;;;;;;;-140.72;100.00;53202.59;5118839;27;20034;-74
2023/01/10 11:16:30;;;;;;;5.45;1.50;;;;;;;-140.72;100.00;53162.00;5120823;27;20038;-76
2023/01/10 11:19:08;;;;;;;6.03;2.00;;;;;;;-140.72;100.00;53196.50;5130056;27;20027;-73
2023/01/10 11:21:34;;;;;;;5.82;1.88;;;;;;;-140.72;100.00;53190.41;5116042;27;20455;-75
2023/01/10 11:24:00;;;;;;;11.63;2.55;;;;;;;-140.72;100.00;53218.81;5122082;27;20031;-74
2023/01/10 11:26:39;;;;;;;7.20;1.83;;;;;;;-140.72;100.00;53200.56;5118278;27;20476;-74
2023/01/10 11:29:05;;;;;;;10.50;3.20;;;;;;;-140.72;100.00;53178.22;5119950;27;20019;-75